createdAt,value
2018-06-25T00:02:15.259Z,91.50
2018-06-25T00:04:45.167Z,91.60
2018-06-25T00:07:15.566Z,91.60
2018-06-25T00:09:45.103Z,91.60
2018-06-25T00:12:14.496Z,91.70
2018-06-25T00:14:46.329Z,91.80
2018-06-25T00:17:15.827Z,92.10
2018-06-25T00:19:44.869Z,92.30
2018-06-25T00:22:14.068Z,92.50
2018-06-25T00:24:44.600Z,92.60
2018-06-25T00:27:13.400Z,92.60
2018-06-25T00:29:42.083Z,92.50
2018-06-25T00:32:10.853Z,92.50
2018-06-25T00:34:41.068Z,92.40
2018-06-25T00:37:10.861Z,92.20
2018-06-25T00:39:40.502Z,92.10
2018-06-25T00:42:08.908Z,92.20
2018-06-25T00:47:06.789Z,92.40
2018-06-25T00:49:37.098Z,92.50
2018-06-25T00:52:07.206Z,92.20
2018-06-25T00:54:38.819Z,92.30
2018-06-25T00:57:08.037Z,92.40
2018-06-25T00:59:42.033Z,92.30
2018-06-25T01:02:11.465Z,92.20
2018-06-25T01:04:40.732Z,92.30
2018-06-25T01:07:10.036Z,92.30
2018-06-25T01:09:39.565Z,92.20
2018-06-25T01:12:09.541Z,92.20
2018-06-25T01:14:38.438Z,92.20
2018-06-25T01:17:08.609Z,92.20
2018-06-25T01:19:38.376Z,92.20
2018-06-25T01:22:09.069Z,92.50
2018-06-25T01:24:38.502Z,92.90
2018-06-25T01:27:10.797Z,93.10
2018-06-25T01:29:41.762Z,93.00
2018-06-25T01:32:11.311Z,93.20
2018-06-25T01:34:40.487Z,93.40
2018-06-25T01:37:09.821Z,93.50
2018-06-25T01:39:39.530Z,93.20
2018-06-25T01:42:09.628Z,93.00
2018-06-25T01:44:39.084Z,93.00
2018-06-25T01:47:08.652Z,93.40
2018-06-25T01:49:37.951Z,92.80
2018-06-25T01:52:07.694Z,92.80
2018-06-25T01:54:37.560Z,93.00
2018-06-25T01:57:07.857Z,92.90
2018-06-25T01:59:37.078Z,92.90
2018-06-25T02:02:06.872Z,92.90
2018-06-25T02:04:38.164Z,92.80
2018-06-25T02:07:07.547Z,92.70
2018-06-25T02:09:37.110Z,92.70
2018-06-25T02:12:09.097Z,93.20
2018-06-25T02:14:38.874Z,92.80
2018-06-25T02:17:07.702Z,92.70
2018-06-25T02:19:37.031Z,92.60
2018-06-25T02:22:07.753Z,92.70
2018-06-25T02:24:38.044Z,92.60
2018-06-25T02:27:09.272Z,92.80
2018-06-25T02:29:39.415Z,93.00
2018-06-25T02:32:09.311Z,93.20
2018-06-25T02:34:39.023Z,93.30
2018-06-25T02:37:09.275Z,93.40
2018-06-25T02:39:38.476Z,93.30
2018-06-25T02:42:09.467Z,93.50
2018-06-25T02:44:39.287Z,93.40
2018-06-25T02:47:09.568Z,93.40
2018-06-25T02:49:39.076Z,93.40
2018-06-25T02:52:09.449Z,93.30
2018-06-25T02:54:39.301Z,93.20
2018-06-25T02:57:08.639Z,93.30
2018-06-25T02:59:38.669Z,93.20
2018-06-25T03:02:08.938Z,93.30
2018-06-25T03:04:38.333Z,93.30
2018-06-25T03:07:10.849Z,93.30
2018-06-25T03:09:40.346Z,93.30
2018-06-25T03:12:10.224Z,93.30
2018-06-25T03:14:39.092Z,93.50
2018-06-25T03:17:09.257Z,93.70
2018-06-25T03:19:38.876Z,93.80
2018-06-25T03:27:06.667Z,93.90
2018-06-25T03:29:36.227Z,93.90
2018-06-25T03:32:06.839Z,94.00
2018-06-25T03:34:37.144Z,94.20
2018-06-25T03:37:07.157Z,94.60
2018-06-25T03:39:37.847Z,94.90
2018-06-25T03:42:07.517Z,96.00
2018-06-25T03:44:37.684Z,96.10
2018-06-25T03:47:07.604Z,95.90
2018-06-25T03:49:37.745Z,96.20
2018-06-25T03:52:07.716Z,96.20
2018-06-25T03:54:37.869Z,96.10
2018-06-25T03:57:07.437Z,96.60
2018-06-25T03:59:37.462Z,96.60
2018-06-25T04:02:07.110Z,96.90
2018-06-25T04:04:37.407Z,97.20
2018-06-25T04:07:07.042Z,96.70
2018-06-25T04:09:36.543Z,96.70
2018-06-25T04:14:36.191Z,96.70
2018-06-25T04:17:05.932Z,96.50
2018-06-25T04:19:37.036Z,96.40
2018-06-25T04:22:06.641Z,96.20
2018-06-25T04:24:36.571Z,96.10
2018-06-25T04:27:08.285Z,96.00
2018-06-25T04:29:37.668Z,96.30
2018-06-25T04:32:07.184Z,96.40
2018-06-25T04:34:37.344Z,96.00
2018-06-25T04:37:09.286Z,96.10
2018-06-25T04:39:38.564Z,96.20
2018-06-25T04:42:08.301Z,96.30
2018-06-25T04:44:37.830Z,95.90
2018-06-25T04:47:07.678Z,96.10
2018-06-25T04:49:37.499Z,96.00
2018-06-25T04:52:07.210Z,95.80
2018-06-25T04:54:36.737Z,95.30
2018-06-25T04:57:06.975Z,95.20
2018-06-25T04:59:37.972Z,95.30
2018-06-25T05:04:37.137Z,94.80
2018-06-25T05:07:08.422Z,95.10
2018-06-25T05:09:39.048Z,95.50
2018-06-25T05:12:08.523Z,95.30
2018-06-25T05:14:38.050Z,95.70
2018-06-25T05:17:08.731Z,95.70
2018-06-25T05:19:38.594Z,95.80
2018-06-25T05:22:09.647Z,95.90
2018-06-25T05:24:39.315Z,95.40
2018-06-25T05:27:08.878Z,95.20
2018-06-25T05:29:38.353Z,94.90
2018-06-25T05:32:08.471Z,94.80
2018-06-25T05:37:07.662Z,94.40
2018-06-25T05:39:38.131Z,94.00
2018-06-25T05:42:09.837Z,94.60
2018-06-25T05:44:39.149Z,94.50
2018-06-25T05:47:08.905Z,94.20
2018-06-25T05:49:37.583Z,94.40
2018-06-25T05:52:08.658Z,93.50
2018-06-25T05:54:38.034Z,93.70
2018-06-25T05:57:07.601Z,93.30
2018-06-25T05:59:37.380Z,93.30
2018-06-25T06:02:07.531Z,93.20
2018-06-25T06:04:38.236Z,93.40
2018-06-25T06:07:07.573Z,93.30
2018-06-25T06:09:37.779Z,93.10
2018-06-25T06:12:07.509Z,93.10
2018-06-25T06:14:37.503Z,92.90
2018-06-25T06:17:07.989Z,92.80
2018-06-25T06:22:07.419Z,93.10
2018-06-25T06:24:37.219Z,93.00
2018-06-25T06:27:07.664Z,93.00
2018-06-25T06:29:38.325Z,92.40
2018-06-25T06:32:08.303Z,92.00
2018-06-25T06:34:41.211Z,91.90
2018-06-25T06:37:09.855Z,92.20
2018-06-25T06:39:40.965Z,92.40
2018-06-25T06:42:10.866Z,92.00
2018-06-25T06:44:40.586Z,91.80
2018-06-25T06:47:09.418Z,92.20
2018-06-25T06:49:40.519Z,92.20
2018-06-25T06:52:08.626Z,92.40
2018-06-25T06:54:42.722Z,92.10
2018-06-25T06:57:13.570Z,91.70
2018-06-25T06:59:43.716Z,91.30
2018-06-25T07:02:12.871Z,91.00
2018-06-25T07:04:41.680Z,90.40
2018-06-25T07:07:12.955Z,90.40
2018-06-25T07:09:44.937Z,90.60
2018-06-25T07:12:14.172Z,90.30
2018-06-25T07:14:44.596Z,90.00
2018-06-25T07:17:17.201Z,89.80
2018-06-25T07:19:47.231Z,89.90
2018-06-25T07:22:14.996Z,89.80
2018-06-25T07:24:43.321Z,88.60
2018-06-25T07:27:11.425Z,87.60
2018-06-25T07:29:40.861Z,87.80
2018-06-25T07:32:09.703Z,88.20
2018-06-25T07:34:42.849Z,87.70
2018-06-25T07:37:16.458Z,86.30
2018-06-25T07:39:45.781Z,87.40
2018-06-25T07:44:42.569Z,85.50
2018-06-25T07:47:11.779Z,84.60
2018-06-25T07:52:09.853Z,82.80
2018-06-25T07:54:38.904Z,80.50
2018-06-25T07:57:08.777Z,78.70
2018-06-25T07:59:38.545Z,78.60
2018-06-25T08:02:09.945Z,77.50
2018-06-25T08:04:40.605Z,77.20
2018-06-25T08:07:11.031Z,77.00
2018-06-25T08:09:39.857Z,76.20
2018-06-25T08:12:08.873Z,77.70
2018-06-25T08:14:39.248Z,76.80
2018-06-25T08:17:08.444Z,75.50
2018-06-25T08:19:38.503Z,75.50
2018-06-25T08:22:09.179Z,76.60
2018-06-25T08:24:38.409Z,75.60
2018-06-25T08:27:08.961Z,75.90
2018-06-25T08:29:38.885Z,76.50
2018-06-25T08:32:08.548Z,75.70
2018-06-25T08:34:39.066Z,75.80
2018-06-25T08:37:09.027Z,72.80
2018-06-25T08:39:38.677Z,70.80
2018-06-25T08:42:07.588Z,69.90
2018-06-25T08:44:37.203Z,70.60
2018-06-25T08:47:07.174Z,70.90
2018-06-25T08:49:37.773Z,71.50
2018-06-25T08:52:07.807Z,71.60
2018-06-25T08:54:37.929Z,70.70
2018-06-25T08:57:07.648Z,71.60
2018-06-25T08:59:38.530Z,68.80
2018-06-25T09:02:08.426Z,68.70
2018-06-25T09:04:37.693Z,66.80
2018-06-25T09:07:07.460Z,67.10
2018-06-25T09:09:37.791Z,67.50
2018-06-25T09:12:07.836Z,67.70
2018-06-25T09:14:37.901Z,67.20
2018-06-25T09:17:08.528Z,69.30
2018-06-25T09:19:38.109Z,69.60
2018-06-25T09:22:07.647Z,68.00
2018-06-25T09:24:37.315Z,68.10
2018-06-25T09:27:06.891Z,67.00
2018-06-25T09:29:37.088Z,66.80
2018-06-25T09:32:06.766Z,68.30
2018-06-25T09:34:41.313Z,70.20
2018-06-25T10:03:20.435Z,70.80
2018-06-25T10:05:48.112Z,69.20
2018-06-25T10:08:19.814Z,69.20
2018-06-25T10:10:47.461Z,69.50
2018-06-25T10:13:15.281Z,68.00
2018-06-25T10:15:43.266Z,68.00
2018-06-25T10:18:11.663Z,65.20
2018-06-25T10:20:41.466Z,62.80
2018-06-25T10:23:10.193Z,63.20
2018-06-25T10:25:38.726Z,62.80
2018-06-25T10:28:07.575Z,63.40
2018-06-25T10:30:36.486Z,64.20
2018-06-25T10:33:05.998Z,64.40
2018-06-25T10:38:05.521Z,60.30
2018-06-25T10:40:34.615Z,58.60
2018-06-25T10:43:03.527Z,58.10
2018-06-25T10:45:35.194Z,58.50
2018-06-25T10:48:05.803Z,58.20
2018-06-25T10:50:36.355Z,56.40
2018-06-25T10:53:09.871Z,56.10
2018-06-25T10:55:44.778Z,55.30
2018-06-25T10:58:13.881Z,57.00
2018-06-25T11:00:44.358Z,58.00
2018-06-25T11:03:15.505Z,58.20
2018-06-25T11:05:44.328Z,57.50
2018-06-25T11:08:14.955Z,55.20
2018-06-25T11:10:44.300Z,54.50
2018-06-25T11:13:15.555Z,54.10
2018-06-25T11:15:46.915Z,53.00
2018-06-25T11:18:16.385Z,54.40
2018-06-25T11:20:45.363Z,53.40
2018-06-25T11:23:14.924Z,52.90
2018-06-25T11:25:44.837Z,54.40
2018-06-25T11:28:13.883Z,55.50
2018-06-25T11:30:42.674Z,55.20
2018-06-25T11:33:11.761Z,55.00
2018-06-25T11:35:40.327Z,55.30
2018-06-25T11:38:10.134Z,57.10
2018-06-25T11:40:39.272Z,55.60
2018-06-25T11:43:09.370Z,55.50
2018-06-25T11:45:39.661Z,54.30
2018-06-25T11:48:09.794Z,54.30
2018-06-25T11:50:39.787Z,53.90
2018-06-25T11:53:11.030Z,52.80
2018-06-25T11:55:40.831Z,52.80
2018-06-25T11:58:11.461Z,53.60
2018-06-25T12:00:43.481Z,52.70
2018-06-25T12:03:12.748Z,53.50
2018-06-25T12:05:43.140Z,54.90
2018-06-25T12:08:12.969Z,55.40
2018-06-25T12:10:43.547Z,55.60
2018-06-25T12:13:13.865Z,55.20
2018-06-25T12:15:44.775Z,55.50
2018-06-25T12:18:16.108Z,55.50
2018-06-25T12:20:46.205Z,55.50
2018-06-25T12:23:15.482Z,55.70
2018-06-25T12:25:44.672Z,56.80
2018-06-25T12:28:13.540Z,56.80
2018-06-25T12:30:42.537Z,56.50
2018-06-25T12:33:12.103Z,57.60
2018-06-25T12:35:40.756Z,57.40
2018-06-25T12:38:10.615Z,58.30
2018-06-25T12:40:42.205Z,59.00
2018-06-25T12:43:12.203Z,58.20
2018-06-25T12:45:42.573Z,58.30
2018-06-25T12:48:11.938Z,58.90
2018-06-25T12:50:41.233Z,58.10
2018-06-25T12:53:12.504Z,57.40
2018-06-25T12:55:42.454Z,56.80
2018-06-25T12:58:12.700Z,57.80
2018-06-25T13:00:42.225Z,57.60
2018-06-25T13:03:12.046Z,57.10
2018-06-25T13:05:41.344Z,57.40
2018-06-25T13:08:11.088Z,58.20
2018-06-25T13:10:40.988Z,57.70
2018-06-25T13:16:03.685Z,58.30
2018-06-25T13:18:37.405Z,58.80
2018-06-25T13:23:38.710Z,58.40
2018-06-25T13:26:25.552Z,58.50
2018-06-25T13:28:53.484Z,57.40
2018-06-25T13:31:35.272Z,58.20
2018-06-25T13:34:33.690Z,57.10
2018-06-25T13:37:09.021Z,57.80
2018-06-25T13:39:39.728Z,57.10
2018-06-25T13:42:09.586Z,56.00
2018-06-25T13:44:39.081Z,54.60
2018-06-25T13:47:10.404Z,54.20
2018-06-25T13:49:40.957Z,53.60
2018-06-25T13:52:11.710Z,53.20
2018-06-25T13:54:41.297Z,55.10
2018-06-25T13:57:10.547Z,54.70
2018-06-25T13:59:40.935Z,55.30
2018-06-25T14:02:10.907Z,56.00
2018-06-25T14:04:40.420Z,56.20
2018-06-25T14:07:09.704Z,56.50
2018-06-25T14:09:39.290Z,56.50
2018-06-25T14:12:09.820Z,55.40
2018-06-25T14:14:39.611Z,55.10
2018-06-25T14:17:11.410Z,56.80
2018-06-25T14:19:40.795Z,57.40
2018-06-25T14:22:16.253Z,56.10
2018-06-25T14:24:49.520Z,56.70
2018-06-25T14:27:17.357Z,56.40
2018-06-25T14:29:45.465Z,56.60
2018-06-25T14:32:19.630Z,55.80
2018-06-25T14:34:52.741Z,55.60
2018-06-25T14:37:21.542Z,54.50
2018-06-25T14:39:49.355Z,54.00
2018-06-25T14:42:31.715Z,53.60
2018-06-25T14:44:59.518Z,53.00
2018-06-25T14:47:27.168Z,52.00
2018-06-25T14:49:54.886Z,51.70
2018-06-25T14:52:25.994Z,52.20
2018-06-25T14:54:53.621Z,52.80
2018-06-25T14:57:26.128Z,52.80
2018-06-25T15:00:02.303Z,52.80
2018-06-25T15:02:31.094Z,53.40
2018-06-25T15:05:05.781Z,52.80
2018-06-25T15:07:40.856Z,53.50
2018-06-25T15:10:10.210Z,54.10
2018-06-25T15:12:39.928Z,53.20
2018-06-25T15:15:10.599Z,52.40
2018-06-25T15:17:43.639Z,53.90
2018-06-25T15:20:19.173Z,54.60
2018-06-25T15:23:02.113Z,54.70
2018-06-25T15:25:30.212Z,55.70
2018-06-25T15:30:25.268Z,55.60
2018-06-25T15:32:52.897Z,55.00
2018-06-25T15:35:20.634Z,54.50
2018-06-25T15:37:48.256Z,54.50
2018-06-25T15:40:16.164Z,55.10
2018-06-25T15:42:45.842Z,55.60
2018-06-25T15:45:14.618Z,55.20
2018-06-25T15:47:43.370Z,54.80
2018-06-25T15:50:13.210Z,53.20
2018-06-25T15:52:42.567Z,53.70
2018-06-25T15:55:11.864Z,54.70
2018-06-25T15:57:50.796Z,55.80
2018-06-25T16:00:18.919Z,55.80
2018-06-25T16:02:47.490Z,55.10
2018-06-25T16:05:15.157Z,55.40
2018-06-25T16:07:44.767Z,55.30
2018-06-25T16:10:13.122Z,56.00
2018-06-25T16:12:45.713Z,56.10
2018-06-25T16:15:19.778Z,56.90
2018-06-25T16:17:58.557Z,57.40
2018-06-25T16:20:26.234Z,57.50
2018-06-25T16:22:53.907Z,57.90
2018-06-25T16:25:21.486Z,58.00
2018-06-25T16:27:49.031Z,58.10
2018-06-25T16:30:16.649Z,58.60
2018-06-25T16:32:45.288Z,57.90
2018-06-25T16:35:14.537Z,57.60
2018-06-25T16:37:42.823Z,57.30
2018-06-25T16:40:11.523Z,57.40
2018-06-25T16:42:40.508Z,58.60
2018-06-25T16:45:09.619Z,58.20
2018-06-25T16:47:40.295Z,58.80
2018-06-25T16:50:10.048Z,59.30
2018-06-25T16:52:38.622Z,59.60
2018-06-25T16:55:08.663Z,60.50
2018-06-25T16:57:37.298Z,61.50
2018-06-25T17:00:07.131Z,62.10
2018-06-25T17:02:37.617Z,62.00
2018-06-25T17:05:06.260Z,61.40
2018-06-25T17:07:36.151Z,61.80
2018-06-25T17:10:06.831Z,61.20
2018-06-25T17:12:37.391Z,61.90
2018-06-25T17:15:06.905Z,62.10
2018-06-25T17:17:36.653Z,62.40
2018-06-25T17:20:05.286Z,62.70
2018-06-25T17:22:34.345Z,62.90
2018-06-25T17:25:03.690Z,63.80
2018-06-25T17:27:32.684Z,64.60
2018-06-25T17:32:29.827Z,66.10
2018-06-25T17:34:58.148Z,66.50
2018-06-25T17:37:33.338Z,66.80
2018-06-25T17:40:02.134Z,66.90
2018-06-25T17:42:34.406Z,67.50
2018-06-25T17:45:04.366Z,68.10
2018-06-25T17:47:34.249Z,68.10
2018-06-25T17:50:04.328Z,68.60
2018-06-25T17:52:33.513Z,68.70
2018-06-25T17:57:28.994Z,67.80
2018-06-25T18:00:00.418Z,68.10
2018-06-25T18:02:28.251Z,68.40
2018-06-25T18:05:03.604Z,69.50
2018-06-25T18:07:33.205Z,67.80
2018-06-25T18:10:01.727Z,67.60
2018-06-25T18:12:29.602Z,67.40
2018-06-25T18:14:57.255Z,68.00
2018-06-25T18:17:24.968Z,68.10
2018-06-25T18:19:52.881Z,68.30
2018-06-25T18:22:20.540Z,68.50
2018-06-25T18:24:48.227Z,68.80
2018-06-25T18:27:16.125Z,68.60
2018-06-25T18:29:43.824Z,69.10
2018-06-25T18:32:11.737Z,69.60
2018-06-25T18:34:44.373Z,70.00
2018-06-25T18:37:13.488Z,70.30
2018-06-25T18:39:43.628Z,70.20
2018-06-25T18:42:13.042Z,70.30
2018-06-25T18:44:43.284Z,70.30
2018-06-25T18:47:11.628Z,70.70
2018-06-25T18:49:42.662Z,71.10
2018-06-25T18:52:11.436Z,71.00
2018-06-25T18:54:40.237Z,71.80
2018-06-25T18:57:09.389Z,71.90
2018-06-25T18:59:38.905Z,71.80
2018-06-25T19:02:08.376Z,72.20
2018-06-25T19:04:44.224Z,72.50
2018-06-25T19:07:13.249Z,72.50
2018-06-25T19:09:45.599Z,73.20
2018-06-25T19:12:14.703Z,73.50
2018-06-25T19:14:44.485Z,74.20
2018-06-25T19:17:14.015Z,74.00
2018-06-25T19:19:50.310Z,74.10
2018-06-25T19:22:17.939Z,74.60
2018-06-25T19:24:46.297Z,74.80
2018-06-25T19:27:18.983Z,74.80
2018-06-25T19:29:47.505Z,75.30
2018-06-25T19:32:15.958Z,75.50
2018-06-25T19:34:44.850Z,76.00
2018-06-25T19:37:13.966Z,76.30
2018-06-25T19:39:42.386Z,76.60
2018-06-25T19:42:13.687Z,77.10
2018-06-25T19:44:44.692Z,77.50
2018-06-25T19:47:14.299Z,77.90
2018-06-25T19:49:45.253Z,78.40
2018-06-25T19:52:14.678Z,78.80
2018-06-25T19:54:48.770Z,79.10
2018-06-25T19:59:48.802Z,80.50
2018-06-25T20:02:16.552Z,79.60
2018-06-25T20:04:44.901Z,79.90
2018-06-25T20:07:14.253Z,80.10
2018-06-25T20:09:47.642Z,80.20
2018-06-25T20:12:15.808Z,80.30
2018-06-25T20:14:44.474Z,80.80
2018-06-25T20:17:14.301Z,80.80
2018-06-25T20:19:43.979Z,80.90
2018-06-25T20:22:16.011Z,81.40
2018-06-25T20:24:48.976Z,81.50
2018-06-25T20:27:19.577Z,82.00
2018-06-25T20:29:47.180Z,82.30
2018-06-25T20:32:15.307Z,82.10
2018-06-25T20:34:44.343Z,82.30
2018-06-25T20:37:13.302Z,82.60
2018-06-25T20:39:42.428Z,82.70
2018-06-25T20:42:11.924Z,82.90
2018-06-25T20:44:43.202Z,83.20
2018-06-25T20:47:12.405Z,83.30
2018-06-25T20:49:40.525Z,83.40
2018-06-25T20:52:10.139Z,83.30
2018-06-25T20:54:39.593Z,83.70
2018-06-25T20:57:10.855Z,84.00
2018-06-25T20:59:42.420Z,84.00
2018-06-25T21:02:11.082Z,84.10
2018-06-25T21:04:39.769Z,84.30
2018-06-25T21:07:09.593Z,84.80
2018-06-25T21:09:38.835Z,84.80
2018-06-25T21:12:07.362Z,85.00
2018-06-25T21:14:36.067Z,85.10
2018-06-25T21:17:04.630Z,85.20
2018-06-25T21:19:33.796Z,85.40
2018-06-25T21:24:35.765Z,85.50
2018-06-25T21:29:35.200Z,85.40
2018-06-25T21:32:05.081Z,85.30
2018-06-25T21:34:34.411Z,85.90
2018-06-25T21:37:06.390Z,86.10
2018-06-25T21:39:35.923Z,86.10
2018-06-25T21:42:05.780Z,86.50
2018-06-25T21:44:35.126Z,86.30
2018-06-25T21:47:04.530Z,86.50
2018-06-25T21:49:33.977Z,86.90
2018-06-25T21:52:03.485Z,87.00
2018-06-25T21:54:35.159Z,87.20
2018-06-25T21:57:05.250Z,87.30
2018-06-25T21:59:36.095Z,87.10
2018-06-25T22:02:06.807Z,87.30
2018-06-25T22:04:36.918Z,87.50
2018-06-25T22:07:07.350Z,87.40
2018-06-25T22:09:36.765Z,87.70
2018-06-25T22:12:07.487Z,87.80
2018-06-25T22:14:38.478Z,88.10
2018-06-25T22:17:08.350Z,88.10
2018-06-25T22:19:37.304Z,88.10
2018-06-25T22:22:06.823Z,88.20
2018-06-25T22:24:36.016Z,88.40
2018-06-25T22:27:06.637Z,88.60
2018-06-25T22:29:37.163Z,88.80
2018-06-25T22:32:06.597Z,89.10
2018-06-25T22:34:37.064Z,89.10
2018-06-25T22:37:06.158Z,88.80
2018-06-25T22:39:35.771Z,89.10
2018-06-25T22:42:05.484Z,89.20
2018-06-25T22:44:35.913Z,89.10
2018-06-25T22:47:05.197Z,89.60
2018-06-25T22:49:34.746Z,88.70
2018-06-25T22:52:05.107Z,88.80
2018-06-25T22:54:34.986Z,88.70
2018-06-25T22:57:05.364Z,88.80
2018-06-25T22:59:35.297Z,89.00
2018-06-25T23:02:05.142Z,88.70
2018-06-25T23:04:34.909Z,88.90
2018-06-25T23:07:04.255Z,88.90
2018-06-25T23:09:33.500Z,88.80
2018-06-25T23:12:01.837Z,89.10
2018-06-25T23:14:31.024Z,89.60
2018-06-25T23:16:58.930Z,89.50
2018-06-25T23:19:26.509Z,89.50
2018-06-25T23:21:54.152Z,89.30
2018-06-25T23:24:21.677Z,89.90
2018-06-25T23:26:49.295Z,89.80
2018-06-25T23:29:17.090Z,89.60
2018-06-25T23:31:45.336Z,89.80
2018-06-25T23:34:14.015Z,89.70
2018-06-25T23:36:42.946Z,89.20
2018-06-25T23:39:12.817Z,89.80
2018-06-25T23:41:42.274Z,90.00
2018-06-25T23:44:11.279Z,89.90
2018-06-25T23:46:40.286Z,90.30
2018-06-25T23:49:09.716Z,90.10
2018-06-25T23:51:39.263Z,90.10
2018-06-25T23:56:38.058Z,90.20
2018-06-25T23:59:07.464Z,90.20
